sensor_id;sensor_type;location;lat;lon;timestamp;P1;durP1;ratioP1;P2;durP2;ratioP2
70707;SDS011;58277;47.316;18.908;2023-09-08T00:01:16;10.32;;;5.50;;
70707;SDS011;58277;47.316;18.908;2023-09-08T00:03:39;8.27;;;5.10;;
70707;SDS011;58277;47.316;18.908;2023-09-08T00:06:01;9.45;;;5.18;;
70707;SDS011;58277;47.316;18.908;2023-09-08T00:08:24;12.57;;;5.20;;
70707;SDS011;58277;47.316;18.908;2023-09-08T00:10:47;9.25;;;5.47;;
70707;SDS011;58277;47.316;18.908;2023-09-08T00:13:10;9.98;;;5.22;;
70707;SDS011;58277;47.316;18.908;2023-09-08T00:15:36;10.00;;;5.28;;
70707;SDS011;58277;47.316;18.908;2023-09-08T00:17:59;11.23;;;5.80;;
70707;SDS011;58277;47.316;18.908;2023-09-08T00:20:21;8.98;;;5.00;;
70707;SDS011;58277;47.316;18.908;2023-09-08T00:22:44;9.50;;;5.40;;
70707;SDS011;58277;47.316;18.908;2023-09-08T00:25:07;13.57;;;5.30;;
70707;SDS011;58277;47.316;18.908;2023-09-08T00:27:30;9.23;;;5.22;;
70707;SDS011;58277;47.316;18.908;2023-09-08T00:29:53;8.98;;;5.25;;
70707;SDS011;58277;47.316;18.908;2023-09-08T00:32:16;10.68;;;5.20;;
70707;SDS011;58277;47.316;18.908;2023-09-08T00:34:40;8.63;;;4.90;;
70707;SDS011;58277;47.316;18.908;2023-09-08T00:37:03;7.63;;;5.28;;
70707;SDS011;58277;47.316;18.908;2023-09-08T00:39:29;9.00;;;5.10;;
70707;SDS011;58277;47.316;18.908;2023-09-08T00:41:52;8.43;;;5.28;;
70707;SDS011;58277;47.316;18.908;2023-09-08T00:44:14;9.45;;;5.35;;
70707;SDS011;58277;47.316;18.908;2023-09-08T00:46:37;10.25;;;5.20;;
70707;SDS011;58277;47.316;18.908;2023-09-08T00:49:01;8.63;;;5.20;;
70707;SDS011;58277;47.316;18.908;2023-09-08T00:51:23;9.20;;;5.03;;
70707;SDS011;58277;47.316;18.908;2023-09-08T00:53:46;9.93;;;5.18;;
70707;SDS011;58277;47.316;18.908;2023-09-08T00:56:10;8.50;;;5.07;;
70707;SDS011;58277;47.316;18.908;2023-09-08T00:58:34;8.45;;;5.18;;
70707;SDS011;58277;47.316;18.908;2023-09-08T01:00:57;10.98;;;5.32;;
70707;SDS011;58277;47.316;18.908;2023-09-08T01:03:20;8.70;;;5.03;;
70707;SDS011;58277;47.316;18.908;2023-09-08T01:05:43;9.15;;;5.00;;
70707;SDS011;58277;47.316;18.908;2023-09-08T01:08:09;9.95;;;4.97;;
70707;SDS011;58277;47.316;18.908;2023-09-08T01:10:32;9.77;;;5.55;;
70707;SDS011;58277;47.316;18.908;2023-09-08T01:12:55;8.35;;;5.18;;
70707;SDS011;58277;47.316;18.908;2023-09-08T01:15:18;9.35;;;4.95;;
70707;SDS011;58277;47.316;18.908;2023-09-08T01:17:41;8.60;;;5.28;;
70707;SDS011;58277;47.316;18.908;2023-09-08T01:20:06;8.02;;;5.10;;
70707;SDS011;58277;47.316;18.908;2023-09-08T01:25:26;8.50;;;5.30;;
70707;SDS011;58277;47.316;18.908;2023-09-08T01:27:52;7.43;;;4.82;;
70707;SDS011;58277;47.316;18.908;2023-09-08T01:30:17;8.40;;;5.22;;
70707;SDS011;58277;47.316;18.908;2023-09-08T01:32:41;9.43;;;5.05;;
70707;SDS011;58277;47.316;18.908;2023-09-08T01:35:04;8.60;;;5.15;;
70707;SDS011;58277;47.316;18.908;2023-09-08T01:37:27;8.80;;;5.03;;
70707;SDS011;58277;47.316;18.908;2023-09-08T01:39:50;9.73;;;5.10;;
70707;SDS011;58277;47.316;18.908;2023-09-08T01:45:38;7.35;;;5.00;;
70707;SDS011;58277;47.316;18.908;2023-09-08T01:48:01;8.90;;;5.20;;
70707;SDS011;58277;47.316;18.908;2023-09-08T01:50:23;9.80;;;4.85;;
70707;SDS011;58277;47.316;18.908;2023-09-08T01:52:47;11.48;;;5.47;;
70707;SDS011;58277;47.316;18.908;2023-09-08T01:55:09;10.25;;;5.50;;
70707;SDS011;58277;47.316;18.908;2023-09-08T01:57:34;10.68;;;5.20;;
70707;SDS011;58277;47.316;18.908;2023-09-08T01:59:57;9.30;;;4.85;;
70707;SDS011;58277;47.316;18.908;2023-09-08T02:02:20;9.10;;;4.78;;
70707;SDS011;58277;47.316;18.908;2023-09-08T02:04:43;10.00;;;5.40;;
70707;SDS011;58277;47.316;18.908;2023-09-08T02:07:05;9.75;;;5.45;;
70707;SDS011;58277;47.316;18.908;2023-09-08T02:09:32;8.90;;;5.60;;
70707;SDS011;58277;47.316;18.908;2023-09-08T02:11:55;8.20;;;5.18;;
70707;SDS011;58277;47.316;18.908;2023-09-08T02:14:18;9.68;;;5.25;;
70707;SDS011;58277;47.316;18.908;2023-09-08T02:16:41;9.00;;;4.95;;
70707;SDS011;58277;47.316;18.908;2023-09-08T02:19:04;8.48;;;5.47;;
70707;SDS011;58277;47.316;18.908;2023-09-08T02:21:26;11.35;;;5.60;;
70707;SDS011;58277;47.316;18.908;2023-09-08T02:23:49;8.80;;;5.18;;
70707;SDS011;58277;47.316;18.908;2023-09-08T02:26:12;9.43;;;5.40;;
70707;SDS011;58277;47.316;18.908;2023-09-08T02:28:34;10.80;;;5.60;;
70707;SDS011;58277;47.316;18.908;2023-09-08T02:30:58;9.20;;;5.47;;
70707;SDS011;58277;47.316;18.908;2023-09-08T02:33:20;9.45;;;5.65;;
70707;SDS011;58277;47.316;18.908;2023-09-08T02:35:44;9.77;;;5.63;;
70707;SDS011;58277;47.316;18.908;2023-09-08T02:38:07;9.00;;;5.78;;
70707;SDS011;58277;47.316;18.908;2023-09-08T02:40:31;9.80;;;5.63;;
70707;SDS011;58277;47.316;18.908;2023-09-08T02:42:57;11.13;;;5.63;;
70707;SDS011;58277;47.316;18.908;2023-09-08T02:45:20;9.77;;;5.85;;
70707;SDS011;58277;47.316;18.908;2023-09-08T02:47:44;9.20;;;5.50;;
70707;SDS011;58277;47.316;18.908;2023-09-08T02:50:08;10.43;;;5.93;;
70707;SDS011;58277;47.316;18.908;2023-09-08T02:52:31;8.90;;;5.35;;
70707;SDS011;58277;47.316;18.908;2023-09-08T02:54:53;10.60;;;5.60;;
70707;SDS011;58277;47.316;18.908;2023-09-08T02:57:16;8.50;;;5.68;;
70707;SDS011;58277;47.316;18.908;2023-09-08T02:59:39;9.85;;;5.65;;
70707;SDS011;58277;47.316;18.908;2023-09-08T03:02:03;8.85;;;5.38;;
70707;SDS011;58277;47.316;18.908;2023-09-08T03:04:25;11.70;;;6.18;;
70707;SDS011;58277;47.316;18.908;2023-09-08T03:06:48;9.40;;;5.70;;
70707;SDS011;58277;47.316;18.908;2023-09-08T03:09:11;9.77;;;5.45;;
70707;SDS011;58277;47.316;18.908;2023-09-08T03:11:34;9.40;;;5.40;;
70707;SDS011;58277;47.316;18.908;2023-09-08T03:13:56;9.10;;;5.78;;
70707;SDS011;58277;47.316;18.908;2023-09-08T03:16:19;9.75;;;5.82;;
70707;SDS011;58277;47.316;18.908;2023-09-08T03:18:43;10.57;;;5.82;;
70707;SDS011;58277;47.316;18.908;2023-09-08T03:21:06;10.73;;;5.78;;
70707;SDS011;58277;47.316;18.908;2023-09-08T03:23:33;11.88;;;5.80;;
70707;SDS011;58277;47.316;18.908;2023-09-08T03:25:55;9.43;;;5.97;;
70707;SDS011;58277;47.316;18.908;2023-09-08T03:28:20;10.32;;;5.68;;
70707;SDS011;58277;47.316;18.908;2023-09-08T03:30:43;9.82;;;6.03;;
70707;SDS011;58277;47.316;18.908;2023-09-08T03:33:06;13.35;;;6.40;;
70707;SDS011;58277;47.316;18.908;2023-09-08T03:35:30;12.88;;;6.13;;
70707;SDS011;58277;47.316;18.908;2023-09-08T03:37:53;10.50;;;6.38;;
70707;SDS011;58277;47.316;18.908;2023-09-08T03:40:16;9.68;;;5.97;;
70707;SDS011;58277;47.316;18.908;2023-09-08T03:42:39;10.70;;;6.28;;
70707;SDS011;58277;47.316;18.908;2023-09-08T03:45:04;11.43;;;6.10;;
70707;SDS011;58277;47.316;18.908;2023-09-08T03:47:27;12.52;;;6.20;;
70707;SDS011;58277;47.316;18.908;2023-09-08T03:49:50;9.68;;;6.10;;
70707;SDS011;58277;47.316;18.908;2023-09-08T03:52:13;10.63;;;5.78;;
70707;SDS011;58277;47.316;18.908;2023-09-08T03:54:36;10.63;;;6.07;;
70707;SDS011;58277;47.316;18.908;2023-09-08T03:56:59;10.85;;;6.57;;
70707;SDS011;58277;47.316;18.908;2023-09-08T03:59:22;12.73;;;6.47;;
70707;SDS011;58277;47.316;18.908;2023-09-08T04:01:45;10.88;;;6.63;;
70707;SDS011;58277;47.316;18.908;2023-09-08T04:04:07;10.65;;;6.20;;
70707;SDS011;58277;47.316;18.908;2023-09-08T04:06:31;12.05;;;6.50;;
70707;SDS011;58277;47.316;18.908;2023-09-08T04:08:53;10.45;;;5.93;;
70707;SDS011;58277;47.316;18.908;2023-09-08T04:11:16;11.52;;;6.70;;
70707;SDS011;58277;47.316;18.908;2023-09-08T04:13:39;10.95;;;6.80;;
70707;SDS011;58277;47.316;18.908;2023-09-08T04:16:02;11.02;;;6.57;;
70707;SDS011;58277;47.316;18.908;2023-09-08T04:18:25;10.52;;;6.72;;
70707;SDS011;58277;47.316;18.908;2023-09-08T04:20:47;12.23;;;6.68;;
70707;SDS011;58277;47.316;18.908;2023-09-08T04:23:10;11.27;;;6.63;;
70707;SDS011;58277;47.316;18.908;2023-09-08T04:25:33;10.95;;;6.22;;
70707;SDS011;58277;47.316;18.908;2023-09-08T04:27:57;11.52;;;6.70;;
70707;SDS011;58277;47.316;18.908;2023-09-08T04:30:19;10.93;;;6.53;;
70707;SDS011;58277;47.316;18.908;2023-09-08T04:32:42;11.93;;;6.70;;
70707;SDS011;58277;47.316;18.908;2023-09-08T04:35:06;13.38;;;6.93;;
70707;SDS011;58277;47.316;18.908;2023-09-08T04:37:30;11.98;;;6.65;;
70707;SDS011;58277;47.316;18.908;2023-09-08T04:39:53;10.95;;;6.40;;
70707;SDS011;58277;47.316;18.908;2023-09-08T04:42:15;10.15;;;6.57;;
70707;SDS011;58277;47.316;18.908;2023-09-08T04:44:39;12.15;;;7.18;;
70707;SDS011;58277;47.316;18.908;2023-09-08T04:47:02;11.52;;;6.13;;
70707;SDS011;58277;47.316;18.908;2023-09-08T04:49:26;11.60;;;7.13;;
70707;SDS011;58277;47.316;18.908;2023-09-08T04:51:51;11.32;;;6.97;;
70707;SDS011;58277;47.316;18.908;2023-09-08T04:54:14;10.70;;;6.88;;
70707;SDS011;58277;47.316;18.908;2023-09-08T04:56:38;10.82;;;6.95;;
70707;SDS011;58277;47.316;18.908;2023-09-08T04:59:02;12.23;;;6.57;;
70707;SDS011;58277;47.316;18.908;2023-09-08T05:01:24;10.90;;;6.60;;
70707;SDS011;58277;47.316;18.908;2023-09-08T05:03:48;12.05;;;7.00;;
70707;SDS011;58277;47.316;18.908;2023-09-08T05:06:11;11.65;;;7.03;;
70707;SDS011;58277;47.316;18.908;2023-09-08T05:08:33;12.43;;;7.68;;
70707;SDS011;58277;47.316;18.908;2023-09-08T05:10:57;11.80;;;6.97;;
70707;SDS011;58277;47.316;18.908;2023-09-08T05:13:20;10.20;;;6.88;;
70707;SDS011;58277;47.316;18.908;2023-09-08T05:15:55;13.68;;;7.68;;
70707;SDS011;58277;47.316;18.908;2023-09-08T05:18:25;13.15;;;7.80;;
70707;SDS011;58277;47.316;18.908;2023-09-08T05:20:49;13.82;;;7.18;;
70707;SDS011;58277;47.316;18.908;2023-09-08T05:23:12;15.50;;;7.35;;
70707;SDS011;58277;47.316;18.908;2023-09-08T05:25:35;11.38;;;7.28;;
70707;SDS011;58277;47.316;18.908;2023-09-08T05:27:58;14.68;;;7.95;;
70707;SDS011;58277;47.316;18.908;2023-09-08T05:30:23;10.02;;;6.70;;
70707;SDS011;58277;47.316;18.908;2023-09-08T05:32:46;12.68;;;7.20;;
70707;SDS011;58277;47.316;18.908;2023-09-08T05:35:10;11.80;;;7.20;;
70707;SDS011;58277;47.316;18.908;2023-09-08T05:37:33;12.95;;;6.88;;
70707;SDS011;58277;47.316;18.908;2023-09-08T05:39:56;14.82;;;8.00;;
70707;SDS011;58277;47.316;18.908;2023-09-08T05:42:19;11.75;;;7.10;;
70707;SDS011;58277;47.316;18.908;2023-09-08T05:44:42;11.65;;;7.32;;
70707;SDS011;58277;47.316;18.908;2023-09-08T05:47:05;12.27;;;7.13;;
70707;SDS011;58277;47.316;18.908;2023-09-08T05:49:28;13.15;;;7.93;;
70707;SDS011;58277;47.316;18.908;2023-09-08T05:51:51;9.88;;;6.78;;
70707;SDS011;58277;47.316;18.908;2023-09-08T05:54:14;12.02;;;6.50;;
70707;SDS011;58277;47.316;18.908;2023-09-08T05:56:38;10.63;;;6.80;;
70707;SDS011;58277;47.316;18.908;2023-09-08T05:59:01;11.68;;;6.65;;
70707;SDS011;58277;47.316;18.908;2023-09-08T06:01:24;10.20;;;6.57;;
70707;SDS011;58277;47.316;18.908;2023-09-08T06:03:48;10.73;;;7.18;;
70707;SDS011;58277;47.316;18.908;2023-09-08T06:06:12;11.55;;;6.60;;
70707;SDS011;58277;47.316;18.908;2023-09-08T06:08:35;10.70;;;6.60;;
70707;SDS011;58277;47.316;18.908;2023-09-08T06:10:58;13.45;;;7.10;;
70707;SDS011;58277;47.316;18.908;2023-09-08T06:13:21;11.48;;;7.28;;
70707;SDS011;58277;47.316;18.908;2023-09-08T06:15:44;12.85;;;7.72;;
70707;SDS011;58277;47.316;18.908;2023-09-08T06:18:08;12.77;;;7.47;;
70707;SDS011;58277;47.316;18.908;2023-09-08T06:20:31;13.05;;;7.75;;
70707;SDS011;58277;47.316;18.908;2023-09-08T06:22:54;11.45;;;7.38;;
70707;SDS011;58277;47.316;18.908;2023-09-08T06:25:17;11.23;;;7.53;;
70707;SDS011;58277;47.316;18.908;2023-09-08T06:27:40;11.98;;;7.10;;
70707;SDS011;58277;47.316;18.908;2023-09-08T06:30:03;12.98;;;7.45;;
70707;SDS011;58277;47.316;18.908;2023-09-08T06:32:28;14.45;;;7.85;;
70707;SDS011;58277;47.316;18.908;2023-09-08T06:34:51;15.23;;;7.50;;
70707;SDS011;58277;47.316;18.908;2023-09-08T06:37:14;13.05;;;7.10;;
70707;SDS011;58277;47.316;18.908;2023-09-08T06:39:37;12.75;;;7.40;;
70707;SDS011;58277;47.316;18.908;2023-09-08T06:42:00;16.20;;;7.30;;
70707;SDS011;58277;47.316;18.908;2023-09-08T06:44:22;13.60;;;7.40;;
70707;SDS011;58277;47.316;18.908;2023-09-08T06:46:45;10.43;;;6.90;;
70707;SDS011;58277;47.316;18.908;2023-09-08T06:49:09;11.52;;;6.95;;
70707;SDS011;58277;47.316;18.908;2023-09-08T06:51:33;11.55;;;7.35;;
70707;SDS011;58277;47.316;18.908;2023-09-08T06:53:56;15.38;;;7.13;;
70707;SDS011;58277;47.316;18.908;2023-09-08T06:56:24;11.40;;;7.22;;
70707;SDS011;58277;47.316;18.908;2023-09-08T06:58:47;12.43;;;7.43;;
70707;SDS011;58277;47.316;18.908;2023-09-08T07:01:10;13.95;;;7.32;;
70707;SDS011;58277;47.316;18.908;2023-09-08T07:03:33;10.38;;;7.18;;
70707;SDS011;58277;47.316;18.908;2023-09-08T07:06:03;14.75;;;7.28;;
70707;SDS011;58277;47.316;18.908;2023-09-08T07:08:26;12.77;;;7.50;;
70707;SDS011;58277;47.316;18.908;2023-09-08T07:10:51;11.73;;;6.95;;
70707;SDS011;58277;47.316;18.908;2023-09-08T07:13:15;11.82;;;7.28;;
70707;SDS011;58277;47.316;18.908;2023-09-08T07:15:38;10.57;;;6.65;;
70707;SDS011;58277;47.316;18.908;2023-09-08T07:18:01;13.38;;;7.32;;
70707;SDS011;58277;47.316;18.908;2023-09-08T07:20:27;11.60;;;6.88;;
70707;SDS011;58277;47.316;18.908;2023-09-08T07:22:50;11.95;;;6.90;;
70707;SDS011;58277;47.316;18.908;2023-09-08T07:25:13;15.50;;;6.93;;
70707;SDS011;58277;47.316;18.908;2023-09-08T07:27:36;12.60;;;6.80;;
70707;SDS011;58277;47.316;18.908;2023-09-08T07:29:59;11.23;;;7.13;;
70707;SDS011;58277;47.316;18.908;2023-09-08T07:32:22;9.43;;;6.90;;
70707;SDS011;58277;47.316;18.908;2023-09-08T07:34:47;11.02;;;6.68;;
70707;SDS011;58277;47.316;18.908;2023-09-08T07:37:17;12.75;;;6.82;;
70707;SDS011;58277;47.316;18.908;2023-09-08T07:39:40;11.93;;;6.93;;
70707;SDS011;58277;47.316;18.908;2023-09-08T07:42:03;12.10;;;6.60;;
70707;SDS011;58277;47.316;18.908;2023-09-08T07:44:26;11.50;;;6.90;;
70707;SDS011;58277;47.316;18.908;2023-09-08T07:46:50;11.70;;;7.00;;
70707;SDS011;58277;47.316;18.908;2023-09-08T07:49:13;12.40;;;7.13;;
70707;SDS011;58277;47.316;18.908;2023-09-08T07:51:37;10.98;;;6.90;;
70707;SDS011;58277;47.316;18.908;2023-09-08T07:54:00;14.45;;;7.18;;
70707;SDS011;58277;47.316;18.908;2023-09-08T07:56:25;14.63;;;7.68;;
70707;SDS011;58277;47.316;18.908;2023-09-08T07:58:48;10.63;;;6.82;;
70707;SDS011;58277;47.316;18.908;2023-09-08T08:01:12;11.40;;;6.95;;
70707;SDS011;58277;47.316;18.908;2023-09-08T08:03:35;13.70;;;6.82;;
70707;SDS011;58277;47.316;18.908;2023-09-08T08:05:58;12.43;;;6.70;;
70707;SDS011;58277;47.316;18.908;2023-09-08T08:08:21;12.95;;;7.20;;
70707;SDS011;58277;47.316;18.908;2023-09-08T08:11:10;12.63;;;6.88;;
70707;SDS011;58277;47.316;18.908;2023-09-08T08:13:55;13.98;;;7.18;;
70707;SDS011;58277;47.316;18.908;2023-09-08T08:16:37;14.55;;;7.30;;
70707;SDS011;58277;47.316;18.908;2023-09-08T08:19:00;13.05;;;7.47;;
70707;SDS011;58277;47.316;18.908;2023-09-08T08:21:23;10.73;;;7.18;;
70707;SDS011;58277;47.316;18.908;2023-09-08T08:23:45;16.63;;;7.05;;
70707;SDS011;58277;47.316;18.908;2023-09-08T08:26:08;14.70;;;7.13;;
70707;SDS011;58277;47.316;18.908;2023-09-08T08:28:31;12.07;;;7.07;;
70707;SDS011;58277;47.316;18.908;2023-09-08T08:30:54;11.88;;;7.35;;
70707;SDS011;58277;47.316;18.908;2023-09-08T08:33:18;11.88;;;7.25;;
70707;SDS011;58277;47.316;18.908;2023-09-08T08:35:50;10.43;;;7.03;;
70707;SDS011;58277;47.316;18.908;2023-09-08T08:38:13;14.20;;;7.35;;
70707;SDS011;58277;47.316;18.908;2023-09-08T08:40:38;11.95;;;7.45;;
70707;SDS011;58277;47.316;18.908;2023-09-08T08:43:01;11.52;;;7.30;;
70707;SDS011;58277;47.316;18.908;2023-09-08T08:45:28;12.68;;;7.30;;
70707;SDS011;58277;47.316;18.908;2023-09-08T08:47:52;16.17;;;8.30;;
70707;SDS011;58277;47.316;18.908;2023-09-08T08:50:16;13.93;;;7.78;;
70707;SDS011;58277;47.316;18.908;2023-09-08T08:52:40;13.43;;;8.05;;
70707;SDS011;58277;47.316;18.908;2023-09-08T08:55:02;17.52;;;9.20;;
70707;SDS011;58277;47.316;18.908;2023-09-08T08:57:27;19.35;;;10.05;;
70707;SDS011;58277;47.316;18.908;2023-09-08T08:59:51;18.00;;;10.43;;
70707;SDS011;58277;47.316;18.908;2023-09-08T09:02:16;15.40;;;8.95;;
70707;SDS011;58277;47.316;18.908;2023-09-08T09:04:41;18.40;;;9.40;;
70707;SDS011;58277;47.316;18.908;2023-09-08T09:07:05;19.80;;;10.93;;
70707;SDS011;58277;47.316;18.908;2023-09-08T09:09:29;19.05;;;10.57;;
70707;SDS011;58277;47.316;18.908;2023-09-08T09:11:52;13.02;;;7.82;;
70707;SDS011;58277;47.316;18.908;2023-09-08T09:14:15;14.38;;;8.25;;
70707;SDS011;58277;47.316;18.908;2023-09-08T09:16:42;11.50;;;7.63;;
70707;SDS011;58277;47.316;18.908;2023-09-08T09:19:06;15.68;;;8.70;;
70707;SDS011;58277;47.316;18.908;2023-09-08T09:21:45;13.93;;;8.27;;
70707;SDS011;58277;47.316;18.908;2023-09-08T09:24:16;13.05;;;7.70;;
70707;SDS011;58277;47.316;18.908;2023-09-08T09:26:51;16.25;;;8.45;;
70707;SDS011;58277;47.316;18.908;2023-09-08T09:29:15;17.00;;;9.20;;
70707;SDS011;58277;47.316;18.908;2023-09-08T09:32:24;16.00;;;8.27;;
70707;SDS011;58277;47.316;18.908;2023-09-08T09:34:26;19.80;;;8.35;;
70707;SDS011;58277;47.316;18.908;2023-09-08T09:36:49;15.98;;;7.63;;
70707;SDS011;58277;47.316;18.908;2023-09-08T09:39:13;12.75;;;7.85;;
70707;SDS011;58277;47.316;18.908;2023-09-08T09:41:38;12.55;;;7.40;;
70707;SDS011;58277;47.316;18.908;2023-09-08T09:44:01;15.85;;;7.85;;
70707;SDS011;58277;47.316;18.908;2023-09-08T09:46:29;14.32;;;7.82;;
70707;SDS011;58277;47.316;18.908;2023-09-08T09:48:54;17.27;;;8.00;;
70707;SDS011;58277;47.316;18.908;2023-09-08T09:51:19;13.10;;;7.72;;
70707;SDS011;58277;47.316;18.908;2023-09-08T09:53:42;11.52;;;7.20;;
70707;SDS011;58277;47.316;18.908;2023-09-08T09:56:05;11.68;;;7.43;;
70707;SDS011;58277;47.316;18.908;2023-09-08T09:58:28;12.43;;;7.68;;
70707;SDS011;58277;47.316;18.908;2023-09-08T10:00:52;10.65;;;7.38;;
70707;SDS011;58277;47.316;18.908;2023-09-08T10:03:17;12.88;;;7.15;;
70707;SDS011;58277;47.316;18.908;2023-09-08T10:05:42;13.93;;;6.93;;
70707;SDS011;58277;47.316;18.908;2023-09-08T10:08:05;11.77;;;7.18;;
70707;SDS011;58277;47.316;18.908;2023-09-08T10:10:28;14.02;;;7.13;;
70707;SDS011;58277;47.316;18.908;2023-09-08T10:12:55;9.90;;;6.72;;
70707;SDS011;58277;47.316;18.908;2023-09-08T10:15:23;9.40;;;6.20;;
70707;SDS011;58277;47.316;18.908;2023-09-08T10:17:47;11.13;;;6.75;;
70707;SDS011;58277;47.316;18.908;2023-09-08T10:20:15;12.43;;;6.68;;
70707;SDS011;58277;47.316;18.908;2023-09-08T10:22:39;9.10;;;6.30;;
70707;SDS011;58277;47.316;18.908;2023-09-08T10:25:07;8.85;;;6.03;;
70707;SDS011;58277;47.316;18.908;2023-09-08T10:27:30;9.00;;;6.05;;
70707;SDS011;58277;47.316;18.908;2023-09-08T10:29:55;12.45;;;6.72;;
70707;SDS011;58277;47.316;18.908;2023-09-08T10:32:18;9.63;;;6.82;;
70707;SDS011;58277;47.316;18.908;2023-09-08T10:34:42;9.63;;;5.97;;
70707;SDS011;58277;47.316;18.908;2023-09-08T10:37:27;13.48;;;6.50;;
70707;SDS011;58277;47.316;18.908;2023-09-08T10:39:52;11.18;;;6.57;;
70707;SDS011;58277;47.316;18.908;2023-09-08T10:44:40;8.38;;;5.97;;
70707;SDS011;58277;47.316;18.908;2023-09-08T10:47:03;11.13;;;6.78;;
70707;SDS011;58277;47.316;18.908;2023-09-08T10:49:25;13.02;;;6.93;;
70707;SDS011;58277;47.316;18.908;2023-09-08T10:51:49;9.07;;;6.57;;
70707;SDS011;58277;47.316;18.908;2023-09-08T10:54:13;8.82;;;6.18;;
70707;SDS011;58277;47.316;18.908;2023-09-08T10:57:07;9.77;;;6.38;;
70707;SDS011;58277;47.316;18.908;2023-09-08T10:59:39;10.23;;;6.35;;
70707;SDS011;58277;47.316;18.908;2023-09-08T11:02:05;10.20;;;6.22;;
70707;SDS011;58277;47.316;18.908;2023-09-08T11:04:28;9.57;;;6.10;;
70707;SDS011;58277;47.316;18.908;2023-09-08T11:06:52;9.75;;;5.80;;
70707;SDS011;58277;47.316;18.908;2023-09-08T11:09:18;8.55;;;5.70;;
70707;SDS011;58277;47.316;18.908;2023-09-08T11:11:40;10.02;;;5.72;;
70707;SDS011;58277;47.316;18.908;2023-09-08T11:14:04;9.75;;;5.45;;
70707;SDS011;58277;47.316;18.908;2023-09-08T11:16:27;8.75;;;5.10;;
70707;SDS011;58277;47.316;18.908;2023-09-08T11:18:54;8.48;;;5.38;;
70707;SDS011;58277;47.316;18.908;2023-09-08T11:21:17;6.78;;;5.10;;
70707;SDS011;58277;47.316;18.908;2023-09-08T11:23:39;7.70;;;5.38;;
70707;SDS011;58277;47.316;18.908;2023-09-08T11:26:02;8.00;;;5.57;;
70707;SDS011;58277;47.316;18.908;2023-09-08T11:28:26;8.40;;;5.38;;
70707;SDS011;58277;47.316;18.908;2023-09-08T11:30:51;9.05;;;5.20;;
70707;SDS011;58277;47.316;18.908;2023-09-08T11:33:14;7.47;;;5.03;;
70707;SDS011;58277;47.316;18.908;2023-09-08T11:35:40;7.82;;;5.18;;
70707;SDS011;58277;47.316;18.908;2023-09-08T11:38:05;7.55;;;5.05;;
70707;SDS011;58277;47.316;18.908;2023-09-08T11:40:28;7.03;;;5.05;;
70707;SDS011;58277;47.316;18.908;2023-09-08T11:42:53;7.72;;;4.80;;
70707;SDS011;58277;47.316;18.908;2023-09-08T11:45:16;8.77;;;5.90;;
70707;SDS011;58277;47.316;18.908;2023-09-08T11:47:43;9.00;;;5.78;;
70707;SDS011;58277;47.316;18.908;2023-09-08T11:50:07;8.57;;;5.30;;
70707;SDS011;58277;47.316;18.908;2023-09-08T11:52:31;10.82;;;6.32;;
70707;SDS011;58277;47.316;18.908;2023-09-08T11:54:53;12.43;;;6.57;;
70707;SDS011;58277;47.316;18.908;2023-09-08T11:57:29;8.30;;;5.90;;
70707;SDS011;58277;47.316;18.908;2023-09-08T11:59:53;9.40;;;5.18;;
70707;SDS011;58277;47.316;18.908;2023-09-08T12:02:16;7.63;;;5.15;;
70707;SDS011;58277;47.316;18.908;2023-09-08T12:04:39;9.18;;;5.53;;
70707;SDS011;58277;47.316;18.908;2023-09-08T12:07:04;7.30;;;5.53;;
70707;SDS011;58277;47.316;18.908;2023-09-08T12:09:27;7.57;;;5.30;;
70707;SDS011;58277;47.316;18.908;2023-09-08T12:11:50;9.00;;;5.38;;
70707;SDS011;58277;47.316;18.908;2023-09-08T12:14:13;8.75;;;5.45;;
70707;SDS011;58277;47.316;18.908;2023-09-08T12:16:36;10.15;;;5.50;;
70707;SDS011;58277;47.316;18.908;2023-09-08T12:18:59;7.38;;;5.38;;
70707;SDS011;58277;47.316;18.908;2023-09-08T12:21:22;8.80;;;4.97;;
70707;SDS011;58277;47.316;18.908;2023-09-08T12:26:49;8.10;;;5.32;;
70707;SDS011;58277;47.316;18.908;2023-09-08T12:29:12;8.93;;;5.05;;
70707;SDS011;58277;47.316;18.908;2023-09-08T12:31:36;8.75;;;5.80;;
70707;SDS011;58277;47.316;18.908;2023-09-08T12:33:59;8.27;;;5.32;;
70707;SDS011;58277;47.316;18.908;2023-09-08T12:36:23;10.13;;;5.65;;
70707;SDS011;58277;47.316;18.908;2023-09-08T12:38:51;7.85;;;4.82;;
70707;SDS011;58277;47.316;18.908;2023-09-08T12:41:15;7.05;;;4.63;;
70707;SDS011;58277;47.316;18.908;2023-09-08T12:43:38;7.13;;;4.82;;
70707;SDS011;58277;47.316;18.908;2023-09-08T12:46:01;7.85;;;4.80;;
70707;SDS011;58277;47.316;18.908;2023-09-08T12:48:24;8.98;;;4.90;;
70707;SDS011;58277;47.316;18.908;2023-09-08T12:50:47;7.78;;;5.28;;
70707;SDS011;58277;47.316;18.908;2023-09-08T12:53:11;9.68;;;5.20;;
70707;SDS011;58277;47.316;18.908;2023-09-08T12:55:34;7.35;;;4.80;;
70707;SDS011;58277;47.316;18.908;2023-09-08T12:57:56;6.97;;;4.88;;
70707;SDS011;58277;47.316;18.908;2023-09-08T13:00:20;6.72;;;4.80;;
70707;SDS011;58277;47.316;18.908;2023-09-08T13:02:45;10.20;;;5.20;;
70707;SDS011;58277;47.316;18.908;2023-09-08T13:05:08;6.65;;;4.82;;
70707;SDS011;58277;47.316;18.908;2023-09-08T13:07:31;9.55;;;5.30;;
70707;SDS011;58277;47.316;18.908;2023-09-08T13:09:54;7.05;;;4.95;;
70707;SDS011;58277;47.316;18.908;2023-09-08T13:12:17;8.68;;;4.75;;
70707;SDS011;58277;47.316;18.908;2023-09-08T13:14:40;6.60;;;4.65;;
70707;SDS011;58277;47.316;18.908;2023-09-08T13:17:03;7.35;;;4.63;;
70707;SDS011;58277;47.316;18.908;2023-09-08T13:19:26;7.57;;;4.68;;
70707;SDS011;58277;47.316;18.908;2023-09-08T13:21:48;7.87;;;4.40;;
70707;SDS011;58277;47.316;18.908;2023-09-08T13:24:11;7.43;;;4.50;;
70707;SDS011;58277;47.316;18.908;2023-09-08T13:26:34;8.15;;;4.47;;
70707;SDS011;58277;47.316;18.908;2023-09-08T13:28:57;14.52;;;4.97;;
70707;SDS011;58277;47.316;18.908;2023-09-08T13:31:20;6.70;;;4.25;;
70707;SDS011;58277;47.316;18.908;2023-09-08T13:33:43;7.38;;;4.50;;
70707;SDS011;58277;47.316;18.908;2023-09-08T13:36:05;10.15;;;5.57;;
70707;SDS011;58277;47.316;18.908;2023-09-08T13:38:28;7.72;;;4.20;;
70707;SDS011;58277;47.316;18.908;2023-09-08T13:40:51;6.45;;;4.57;;
70707;SDS011;58277;47.316;18.908;2023-09-08T13:43:15;6.78;;;4.75;;
70707;SDS011;58277;47.316;18.908;2023-09-08T13:45:38;6.57;;;4.30;;
70707;SDS011;58277;47.316;18.908;2023-09-08T13:48:00;6.72;;;4.63;;
70707;SDS011;58277;47.316;18.908;2023-09-08T13:50:24;6.72;;;4.70;;
70707;SDS011;58277;47.316;18.908;2023-09-08T13:52:48;6.70;;;4.47;;
70707;SDS011;58277;47.316;18.908;2023-09-08T13:55:12;9.50;;;4.90;;
70707;SDS011;58277;47.316;18.908;2023-09-08T13:57:38;7.93;;;4.78;;
70707;SDS011;58277;47.316;18.908;2023-09-08T14:00:03;7.85;;;4.95;;
70707;SDS011;58277;47.316;18.908;2023-09-08T14:02:31;9.27;;;4.85;;
70707;SDS011;58277;47.316;18.908;2023-09-08T14:05:05;7.53;;;4.75;;
70707;SDS011;58277;47.316;18.908;2023-09-08T14:07:32;6.50;;;4.82;;
70707;SDS011;58277;47.316;18.908;2023-09-08T14:09:59;8.35;;;4.53;;
70707;SDS011;58277;47.316;18.908;2023-09-08T14:12:27;7.68;;;4.78;;
70707;SDS011;58277;47.316;18.908;2023-09-08T14:14:57;6.63;;;4.40;;
70707;SDS011;58277;47.316;18.908;2023-09-08T14:17:19;9.55;;;5.05;;
70707;SDS011;58277;47.316;18.908;2023-09-08T14:19:43;6.85;;;4.93;;